Airport View

Enter AWOS ICAO identifier for current METAR.

ex. KFNL

KCCR 261153Z AUTO 20010KT 10SM CLR 16/10 A2990 RMK AO2 SLP111 T01610100 10167 20156 53005

26 Jun 2019 12:38

Phone: 925-689-2077

Other Area AWOS: KAPC - KSUU - KOAK - KHWD

TAF KSUU 261100Z 2611/2717 23015G25KT 9999 SKC QNH2983INS BECMG 2620/2621 23025G35KT 9999 SKC QNH2992INS BECMG 2702/2703 23015G25KT 9999 SKC QNH2994INS TX25/2623Z TN14/2613Z